Time;durP1;ratioP1;P1;durP2;ratioP2;P2;SDS_P1;SDS_P2;PMS_P1;PMS_P2;Temp;Humidity;BMP_temperature;BMP_pressure;BME280_temperature;BME280_humidity;BME280_pressure;Samples;Min_cycle;Max_cycle;Signal;HPM_P1;HPM_P2
2022/04/27 00:00:05;;;;;;;12.40;7.13;;;;;;;;;;4957594;28;20034;-84
2022/04/27 00:02:31;;;;;;;12.82;7.75;;;;;;;;;;4957598;28;20026;-80
2022/04/27 00:04:58;;;;;;;13.52;7.90;;;;;;;;;;4957425;28;20122;-79
2022/04/27 00:07:25;;;;;;;10.55;7.25;;;;;;;;;;4957274;28;20027;-80
2022/04/27 00:09:51;;;;;;;12.43;7.95;;;;;;;;;;4957559;28;20031;-81
2022/04/27 00:12:17;;;;;;;10.68;7.78;;;;;;;;;;4957499;28;20030;-80
2022/04/27 00:14:43;;;;;;;11.73;7.85;;;;;;;;;;4957473;28;20031;-81
2022/04/27 00:17:09;;;;;;;13.63;7.88;;;;;;;;;;4974446;28;20034;-79
2022/04/27 00:19:35;;;;;;;14.07;8.40;;;;;;;;;;4957375;28;20460;-80
2022/04/27 00:22:01;;;;;;;13.93;7.97;;;;;;;;;;4974753;28;20030;-80
2022/04/27 00:24:27;;;;;;;12.77;8.00;;;;;;;;;;4957457;28;20023;-79
2022/04/27 00:26:53;;;;;;;14.18;8.35;;;;;;;;;;4957040;28;20530;-80
2022/04/27 00:29:20;;;;;;;12.57;8.75;;;;;;;;;;4957111;28;20050;-79
2022/04/27 00:31:46;;;;;;;13.35;8.98;;;;;;;;;;4957005;28;20099;-78
2022/04/27 00:34:12;;;;;;;13.25;8.65;;;;;;;;;;4956973;28;20062;-79
2022/04/27 00:36:38;;;;;;;15.43;9.00;;;;;;;;;;4957253;28;20059;-86
2022/04/27 00:39:04;;;;;;;13.52;8.93;;;;;;;;;;4957095;28;20125;-79
2022/04/27 00:41:30;;;;;;;13.73;8.95;;;;;;;;;;4974422;28;20082;-80
2022/04/27 00:43:57;;;;;;;15.15;9.55;;;;;;;;;;4957038;28;20035;-80
2022/04/27 00:46:23;;;;;;;14.82;9.45;;;;;;;;;;4974555;28;20106;-80
2022/04/27 00:48:49;;;;;;;13.27;9.00;;;;;;;;;;4974245;28;20126;-79
2022/04/27 00:51:17;;;;;;;15.02;9.50;;;;;;;;;;4957153;28;20038;-80
2022/04/27 00:53:43;;;;;;;15.00;9.85;;;;;;;;;;4956966;28;20034;-78
2022/04/27 00:56:10;;;;;;;19.67;10.68;;;;;;;;;;4957044;28;20061;-80
2022/04/27 00:58:36;;;;;;;17.20;11.07;;;;;;;;;;4972889;28;20442;-78
2022/04/27 01:01:02;;;;;;;16.73;10.85;;;;;;;;;;4974838;28;20023;-77
2022/04/27 01:03:29;;;;;;;17.10;10.73;;;;;;;;;;4973155;28;20031;-79
2022/04/27 01:05:56;;;;;;;18.27;11.00;;;;;;;;;;4972753;28;20161;-80
2022/04/27 01:08:23;;;;;;;16.55;11.30;;;;;;;;;;4973025;28;20027;-80
2022/04/27 01:10:49;;;;;;;16.58;11.35;;;;;;;;;;4974199;28;20023;-79
2022/04/27 01:13:16;;;;;;;16.70;10.98;;;;;;;;;;4974266;28;20026;-79
2022/04/27 01:15:43;;;;;;;16.60;10.98;;;;;;;;;;4973033;28;20027;-79
2022/04/27 01:18:09;;;;;;;16.70;11.45;;;;;;;;;;4972867;28;20034;-80
2022/04/27 01:20:35;;;;;;;19.13;11.85;;;;;;;;;;4972962;28;20380;-80
2022/04/27 01:23:02;;;;;;;20.38;12.02;;;;;;;;;;4972867;28;20022;-80
2022/04/27 01:25:28;;;;;;;19.67;13.35;;;;;;;;;;4972687;28;20026;-80
2022/04/27 01:27:57;;;;;;;18.90;12.73;;;;;;;;;;4972809;28;20464;-79
2022/04/27 01:30:23;;;;;;;21.90;12.60;;;;;;;;;;4973882;28;20054;-80
2022/04/27 01:32:50;;;;;;;18.20;12.00;;;;;;;;;;4972871;28;20122;-80
2022/04/27 01:35:16;;;;;;;18.20;11.85;;;;;;;;;;4972842;28;20022;-80
2022/04/27 01:38:00;;;;;;;17.02;11.90;;;;;;;;;;4972492;28;20411;-79
2022/04/27 01:40:26;;;;;;;20.65;11.75;;;;;;;;;;4974129;28;20031;-79
2022/04/27 01:42:52;;;;;;;18.67;11.90;;;;;;;;;;4972861;28;20033;-80
2022/04/27 01:45:18;;;;;;;16.77;11.25;;;;;;;;;;4975660;28;20030;-80
2022/04/27 01:47:44;;;;;;;17.92;11.98;;;;;;;;;;4976340;28;20026;-80
2022/04/27 01:50:15;;;;;;;19.10;11.43;;;;;;;;;;4976276;28;20476;-80
2022/04/27 01:55:27;;;;;;;17.45;11.00;;;;;;;;;;4977256;28;20081;-80
2022/04/27 01:57:54;;;;;;;18.02;11.13;;;;;;;;;;4975875;28;20534;-80
2022/04/27 02:00:21;;;;;;;16.42;11.45;;;;;;;;;;4976105;28;20023;-79
2022/04/27 02:02:48;;;;;;;17.10;11.65;;;;;;;;;;4975751;28;20037;-79
2022/04/27 02:05:14;;;;;;;18.17;11.80;;;;;;;;;;4975636;28;20038;-78
2022/04/27 02:07:43;;;;;;;17.05;11.48;;;;;;;;;;4975809;28;20141;-80
2022/04/27 02:10:09;;;;;;;17.42;10.43;;;;;;;;;;4975701;28;20464;-79
2022/04/27 02:12:35;;;;;;;16.73;10.35;;;;;;;;;;4975598;28;20031;-79
2022/04/27 02:15:02;;;;;;;16.35;10.45;;;;;;;;;;4975700;28;20037;-80
2022/04/27 02:17:30;;;;;;;18.83;11.20;;;;;;;;;;4975516;28;20406;-80
2022/04/27 02:19:56;;;;;;;16.77;10.73;;;;;;;;;;4975665;28;20030;-83
2022/04/27 02:22:23;;;;;;;17.33;11.75;;;;;;;;;;4975504;28;20582;-79
2022/04/27 02:24:49;;;;;;;16.70;11.10;;;;;;;;;;4975586;28;20097;-80
2022/04/27 02:27:15;;;;;;;18.65;11.40;;;;;;;;;;4975402;28;20050;-78
2022/04/27 02:29:42;;;;;;;18.02;11.48;;;;;;;;;;4975053;28;20058;-80
2022/04/27 02:32:09;;;;;;;16.73;11.50;;;;;;;;;;4975486;28;20027;-80
2022/04/27 02:34:35;;;;;;;18.77;11.63;;;;;;;;;;4975312;28;20384;-80
2022/04/27 02:37:03;;;;;;;18.17;11.48;;;;;;;;;;4975106;28;20082;-83
2022/04/27 02:39:30;;;;;;;18.67;11.70;;;;;;;;;;4975231;28;20026;-79
2022/04/27 02:41:56;;;;;;;20.70;12.55;;;;;;;;;;4975044;28;20129;-79
2022/04/27 02:44:22;;;;;;;17.58;11.38;;;;;;;;;;4975250;28;20027;-80
2022/04/27 02:46:48;;;;;;;17.58;11.77;;;;;;;;;;4975090;28;20034;-81
2022/04/27 02:52:00;;;;;;;18.83;11.65;;;;;;;;;;4976646;28;20037;-80
2022/04/27 02:54:26;;;;;;;19.30;12.05;;;;;;;;;;4976333;28;20376;-80
2022/04/27 02:56:52;;;;;;;18.23;12.57;;;;;;;;;;4974843;28;20066;-79
2022/04/27 02:59:18;;;;;;;20.77;13.85;;;;;;;;;;4974978;28;20031;-80
2022/04/27 03:01:45;;;;;;;20.45;12.98;;;;;;;;;;4976155;28;20424;-78
2022/04/27 03:04:11;;;;;;;22.48;13.45;;;;;;;;;;4974782;28;20410;-78
2022/04/27 03:06:37;;;;;;;22.92;13.75;;;;;;;;;;4974593;28;20023;-78
2022/04/27 03:09:04;;;;;;;26.40;14.75;;;;;;;;;;4974769;28;20034;-80
2022/04/27 03:11:30;;;;;;;22.10;13.82;;;;;;;;;;4976003;28;20022;-79
2022/04/27 03:13:56;;;;;;;25.15;13.77;;;;;;;;;;4974483;28;20471;-79
2022/04/27 03:16:22;;;;;;;21.45;14.05;;;;;;;;;;4974532;28;20042;-79
2022/04/27 03:18:48;;;;;;;23.13;14.93;;;;;;;;;;4974452;28;20027;-78
2022/04/27 03:21:15;;;;;;;23.00;13.70;;;;;;;;;;4974537;28;20041;-80
2022/04/27 03:23:41;;;;;;;23.48;14.43;;;;;;;;;;4975612;28;20050;-79
2022/04/27 03:26:07;;;;;;;21.83;14.95;;;;;;;;;;4975830;28;20434;-79
2022/04/27 03:28:34;;;;;;;22.60;13.93;;;;;;;;;;4974128;28;20054;-80
2022/04/27 03:31:00;;;;;;;23.80;14.65;;;;;;;;;;4975639;28;20035;-79
2022/04/27 03:33:26;;;;;;;22.58;14.18;;;;;;;;;;4974313;28;20113;-80
2022/04/27 03:35:52;;;;;;;24.63;14.77;;;;;;;;;;4974198;28;20443;-79
2022/04/27 03:38:18;;;;;;;24.58;13.95;;;;;;;;;;4974182;28;20101;-80
2022/04/27 03:40:48;;;;;;;23.00;14.27;;;;;;;;;;4974140;28;20042;-79
2022/04/27 03:43:15;;;;;;;20.00;12.80;;;;;;;;;;4973875;28;20038;-80
2022/04/27 03:45:41;;;;;;;26.40;15.48;;;;;;;;;;4974030;28;20034;-80
2022/04/27 03:48:08;;;;;;;25.73;15.50;;;;;;;;;;4973986;28;20527;-79
2022/04/27 03:50:35;;;;;;;27.75;16.40;;;;;;;;;;4975133;28;20094;-79
2022/04/27 03:53:01;;;;;;;25.60;16.35;;;;;;;;;;4973987;28;20030;-79
2022/04/27 03:55:28;;;;;;;28.58;17.17;;;;;;;;;;4974851;28;20066;-78
2022/04/27 03:57:55;;;;;;;27.75;17.33;;;;;;;;;;4973766;28;20041;-79
2022/04/27 04:00:21;;;;;;;27.45;16.88;;;;;;;;;;4973768;28;20038;-81
2022/04/27 04:02:47;;;;;;;28.77;17.05;;;;;;;;;;4973812;28;20113;-79
2022/04/27 04:05:13;;;;;;;30.50;18.67;;;;;;;;;;4974867;28;20198;-78
2022/04/27 04:07:40;;;;;;;28.80;17.42;;;;;;;;;;4973303;28;20027;-77
2022/04/27 04:10:06;;;;;;;32.22;18.40;;;;;;;;;;4973538;28;20031;-77
2022/04/27 04:12:32;;;;;;;31.95;17.63;;;;;;;;;;4973638;28;20506;-78
2022/04/27 04:14:58;;;;;;;33.67;19.58;;;;;;;;;;4973513;28;20114;-78
2022/04/27 04:17:25;;;;;;;30.52;18.42;;;;;;;;;;4973499;28;20558;-77
2022/04/27 04:19:51;;;;;;;29.10;17.75;;;;;;;;;;4973410;28;20022;-78
2022/04/27 04:22:17;;;;;;;29.58;18.00;;;;;;;;;;4973462;28;20469;-81
2022/04/27 04:28:29;;;;;;;28.90;16.65;;;;;;;;;;4973566;28;20027;-79
2022/04/27 04:30:14;;;;;;;31.77;17.70;;;;;;;;;;4982419;28;20129;-79
2022/04/27 04:32:41;;;;;;;27.65;16.58;;;;;;;;;;4965115;28;20133;-79
2022/04/27 04:35:07;;;;;;;26.35;16.45;;;;;;;;;;4957727;28;20535;-78
2022/04/27 04:37:33;;;;;;;25.38;15.57;;;;;;;;;;4957094;28;20093;-79
2022/04/27 04:40:00;;;;;;;27.92;16.17;;;;;;;;;;4957361;28;20062;-78
2022/04/27 04:42:26;;;;;;;26.23;14.90;;;;;;;;;;4957172;28;20090;-77
2022/04/27 04:44:52;;;;;;;25.77;15.60;;;;;;;;;;4957067;28;20027;-79
2022/04/27 04:47:18;;;;;;;26.60;14.55;;;;;;;;;;4957252;28;20082;-80
2022/04/27 04:49:44;;;;;;;26.25;15.23;;;;;;;;;;4957263;28;20074;-81
2022/04/27 04:52:10;;;;;;;24.75;14.27;;;;;;;;;;4957154;28;20485;-81
2022/04/27 04:54:36;;;;;;;22.65;14.15;;;;;;;;;;4956969;28;20061;-82
2022/04/27 04:57:03;;;;;;;22.35;14.18;;;;;;;;;;4961382;28;20478;-78
2022/04/27 04:59:29;;;;;;;22.55;14.18;;;;;;;;;;4992769;28;20398;-82
2022/04/27 05:01:55;;;;;;;23.73;14.60;;;;;;;;;;4975900;28;20153;-82
2022/04/27 05:04:22;;;;;;;23.48;13.95;;;;;;;;;;4989491;28;20485;-81
2022/04/27 05:06:48;;;;;;;24.48;14.10;;;;;;;;;;4976213;28;20022;-83
2022/04/27 05:09:14;;;;;;;26.15;14.80;;;;;;;;;;4975707;28;20022;-82
2022/04/27 05:11:40;;;;;;;24.67;13.77;;;;;;;;;;4968766;28;20030;-79
2022/04/27 05:14:06;;;;;;;24.15;13.70;;;;;;;;;;4967307;28;20045;-80
2022/04/27 05:16:33;;;;;;;23.92;13.75;;;;;;;;;;4959337;28;20484;-83
2022/04/27 05:18:59;;;;;;;19.77;11.80;;;;;;;;;;4958407;28;20023;-79
2022/04/27 05:21:25;;;;;;;22.95;13.55;;;;;;;;;;4961541;28;20438;-80
2022/04/27 05:23:53;;;;;;;20.75;12.30;;;;;;;;;;4978579;28;20031;-79
2022/04/27 05:26:19;;;;;;;24.48;13.20;;;;;;;;;;4978397;28;20029;-91
2022/04/27 05:31:57;;;;;;;22.75;13.02;;;;;;;;;;4893441;28;20041;-81
2022/04/27 05:34:24;;;;;;;25.95;13.40;;;;;;;;;;4960766;28;20479;-79
2022/04/27 05:36:50;;;;;;;20.00;12.27;;;;;;;;;;4978077;28;20039;-80
2022/04/27 05:39:18;;;;;;;20.38;11.65;;;;;;;;;;4960438;28;20029;-80
2022/04/27 05:41:44;;;;;;;23.45;13.20;;;;;;;;;;4960080;28;20398;-79
2022/04/27 05:44:12;;;;;;;25.17;12.80;;;;;;;;;;4977399;28;20019;-78
2022/04/27 05:46:38;;;;;;;23.48;12.18;;;;;;;;;;4977238;28;20034;-79
2022/04/27 05:49:04;;;;;;;21.45;11.82;;;;;;;;;;4969270;28;20049;-78
2022/04/27 05:51:30;;;;;;;19.52;11.98;;;;;;;;;;4965559;28;20027;-79
2022/04/27 05:53:57;;;;;;;20.83;11.50;;;;;;;;;;4977150;28;20535;-79
2022/04/27 05:56:24;;;;;;;18.88;11.23;;;;;;;;;;4977198;28;20030;-79
2022/04/27 05:58:51;;;;;;;23.45;11.70;;;;;;;;;;4987058;28;20479;-81
2022/04/27 06:01:18;;;;;;;24.23;12.20;;;;;;;;;;4978854;28;20487;-79
2022/04/27 06:03:44;;;;;;;20.85;12.18;;;;;;;;;;4996551;28;20498;-81
2022/04/27 06:06:10;;;;;;;19.63;10.50;;;;;;;;;;4996384;28;20058;-81
2022/04/27 06:08:36;;;;;;;18.75;11.05;;;;;;;;;;4979334;28;20117;-83
2022/04/27 06:11:03;;;;;;;17.35;10.93;;;;;;;;;;4979797;28;20170;-80
2022/04/27 06:13:30;;;;;;;24.13;11.85;;;;;;;;;;4979375;28;20026;-80
2022/04/27 06:15:56;;;;;;;23.85;12.57;;;;;;;;;;4975002;28;20472;-82
2022/04/27 06:18:22;;;;;;;22.60;13.05;;;;;;;;;;4992968;28;20081;-79
2022/04/27 06:20:48;;;;;;;27.55;13.50;;;;;;;;;;4996488;28;20029;-83
2022/04/27 06:23:15;;;;;;;21.92;12.63;;;;;;;;;;4978849;28;20034;-80
2022/04/27 06:25:41;;;;;;;22.98;13.23;;;;;;;;;;4978732;28;20434;-81
2022/04/27 06:28:10;;;;;;;23.80;13.13;;;;;;;;;;4978916;28;20379;-80
2022/04/27 06:30:36;;;;;;;28.67;12.82;;;;;;;;;;4978122;28;20050;-82
2022/04/27 06:33:03;;;;;;;21.70;12.15;;;;;;;;;;4978448;28;20037;-81
2022/04/27 06:35:29;;;;;;;22.83;12.45;;;;;;;;;;4978538;28;20073;-80
2022/04/27 06:38:04;;;;;;;22.33;11.63;;;;;;;;;;4979108;28;20049;-83
2022/04/27 06:40:30;;;;;;;26.67;12.23;;;;;;;;;;4998923;28;20026;-78
2022/04/27 06:42:57;;;;;;;20.90;12.00;;;;;;;;;;4978994;28;20030;-80
2022/04/27 06:45:27;;;;;;;24.55;12.32;;;;;;;;;;4978553;28;20411;-79
2022/04/27 06:47:54;;;;;;;23.55;12.50;;;;;;;;;;4978607;28;20038;-83
2022/04/27 06:50:21;;;;;;;23.52;12.38;;;;;;;;;;4978323;28;20479;-78
2022/04/27 06:52:47;;;;;;;26.02;13.90;;;;;;;;;;4974651;28;20030;-84
2022/04/27 06:55:13;;;;;;;23.48;12.88;;;;;;;;;;4958916;28;20471;-79
2022/04/27 06:57:40;;;;;;;26.27;13.45;;;;;;;;;;4958614;28;20041;-79
2022/04/27 07:00:08;;;;;;;27.23;13.15;;;;;;;;;;4958832;28;20094;-87
2022/04/27 07:02:34;;;;;;;25.80;13.63;;;;;;;;;;4958720;28;20122;-79
2022/04/27 07:05:01;;;;;;;28.00;13.70;;;;;;;;;;4975892;28;20063;-78
2022/04/27 07:07:31;;;;;;;29.27;15.32;;;;;;;;;;4958847;28;20034;-80
2022/04/27 07:09:57;;;;;;;28.98;14.05;;;;;;;;;;4958746;28;20106;-80
2022/04/27 07:12:23;;;;;;;33.35;15.77;;;;;;;;;;4958443;28;20038;-78
2022/04/27 07:14:51;;;;;;;27.75;14.43;;;;;;;;;;4958415;28;20031;-78
2022/04/27 07:17:17;;;;;;;26.95;14.07;;;;;;;;;;4975644;28;20031;-77
2022/04/27 07:19:43;;;;;;;29.77;15.35;;;;;;;;;;4958461;28;20460;-78
2022/04/27 07:22:10;;;;;;;28.08;14.48;;;;;;;;;;4960625;28;20074;-78
2022/04/27 07:24:40;;;;;;;29.60;15.18;;;;;;;;;;4968817;28;20030;-78
2022/04/27 07:27:06;;;;;;;26.33;14.38;;;;;;;;;;4966936;28;20486;-79
2022/04/27 07:29:33;;;;;;;26.73;14.77;;;;;;;;;;4958141;28;20113;-78
2022/04/27 07:31:59;;;;;;;30.50;15.48;;;;;;;;;;4973781;28;20026;-78
2022/04/27 07:34:26;;;;;;;28.52;16.23;;;;;;;;;;4994794;28;20030;-78
2022/04/27 07:36:52;;;;;;;27.80;14.50;;;;;;;;;;4977211;28;20031;-79
2022/04/27 07:39:18;;;;;;;27.42;15.18;;;;;;;;;;4988827;28;20460;-78
2022/04/27 07:41:45;;;;;;;27.27;14.82;;;;;;;;;;4956957;28;20042;-79
2022/04/27 07:44:12;;;;;;;23.15;13.05;;;;;;;;;;4975216;28;20029;-80
2022/04/27 07:46:38;;;;;;;26.75;13.52;;;;;;;;;;4958231;28;20395;-79
2022/04/27 07:49:04;;;;;;;31.85;14.40;;;;;;;;;;4960322;28;20030;-80
2022/04/27 07:51:30;;;;;;;25.55;13.55;;;;;;;;;;4965712;28;20034;-79
2022/04/27 07:53:56;;;;;;;29.35;13.73;;;;;;;;;;4957750;28;20030;-80
2022/04/27 07:56:23;;;;;;;25.17;13.10;;;;;;;;;;4963750;28;20022;-81
2022/04/27 07:58:49;;;;;;;22.75;12.13;;;;;;;;;;4973111;28;20085;-79
2022/04/27 08:01:15;;;;;;;25.05;13.02;;;;;;;;;;4975451;28;20037;-80
2022/04/27 08:03:41;;;;;;;26.30;12.73;;;;;;;;;;4977626;28;20057;-80
2022/04/27 08:06:07;;;;;;;24.25;12.00;;;;;;;;;;4974994;28;20081;-79
2022/04/27 08:08:35;;;;;;;23.65;12.10;;;;;;;;;;4957683;28;20030;-80
2022/04/27 08:11:01;;;;;;;24.00;12.35;;;;;;;;;;4957956;28;20023;-79
2022/04/27 08:13:27;;;;;;;21.98;11.65;;;;;;;;;;4975406;28;20035;-85
2022/04/27 08:15:53;;;;;;;23.15;11.40;;;;;;;;;;4957678;28;20460;-80
2022/04/27 08:18:20;;;;;;;24.73;11.88;;;;;;;;;;4959063;28;20038;-81
2022/04/27 08:23:34;;;;;;;25.83;12.45;;;;;;;;;;4975357;28;20048;-87
2022/04/27 08:26:04;;;;;;;24.67;12.90;;;;;;;;;;4957747;28;20031;-86
2022/04/27 08:28:30;;;;;;;24.90;11.57;;;;;;;;;;4959281;28;20027;-82
2022/04/27 08:30:57;;;;;;;20.77;11.65;;;;;;;;;;4967259;28;20082;-81
2022/04/27 08:33:23;;;;;;;24.10;11.27;;;;;;;;;;4977100;28;20030;-79
2022/04/27 08:35:49;;;;;;;23.77;10.65;;;;;;;;;;4994512;28;20022;-80
2022/04/27 08:38:15;;;;;;;21.88;11.18;;;;;;;;;;4977783;28;20038;-80
2022/04/27 08:40:43;;;;;;;20.05;9.13;;;;;;;;;;4990856;28;20034;-85
2022/04/27 08:43:16;;;;;;;18.63;8.68;;;;;;;;;;4958140;28;20026;-88
2022/04/27 08:45:46;;;;;;;21.23;9.40;;;;;;;;;;4957670;28;20027;-83
2022/04/27 08:48:14;;;;;;;18.80;9.13;;;;;;;;;;4958154;28;20023;-83
2022/04/27 08:50:40;;;;;;;20.25;8.68;;;;;;;;;;4957239;28;20027;-81
2022/04/27 08:53:07;;;;;;;21.50;9.38;;;;;;;;;;4960939;28;20023;-83
2022/04/27 08:55:36;;;;;;;17.92;8.43;;;;;;;;;;4961856;28;20030;-81
2022/04/27 08:58:12;;;;;;;20.38;9.07;;;;;;;;;;4961629;28;20166;-84
2022/04/27 09:00:40;;;;;;;18.05;8.77;;;;;;;;;;4961409;28;20097;-82
2022/04/27 09:03:23;;;;;;;19.65;8.27;;;;;;;;;;4961364;28;20053;-84
2022/04/27 09:06:16;;;;;;;19.80;7.90;;;;;;;;;;4961497;28;20033;-83
2022/04/27 09:08:43;;;;;;;16.42;7.78;;;;;;;;;;4958902;28;20035;-89
2022/04/27 09:11:20;;;;;;;24.00;9.50;;;;;;;;;;4961666;28;20027;-91
2022/04/27 09:13:54;;;;;;;18.70;8.85;;;;;;;;;;4961355;28;20109;-93
2022/04/27 09:16:21;;;;;;;18.10;8.35;;;;;;;;;;4961867;28;20027;-82
2022/04/27 09:21:53;;;;;;;21.70;8.55;;;;;;;;;;4978788;28;20042;-88
2022/04/27 09:24:20;;;;;;;22.15;8.30;;;;;;;;;;4951274;28;20106;-94
2022/04/27 09:26:58;;;;;;;21.80;8.27;;;;;;;;;;4968160;28;20051;-83
2022/04/27 09:29:29;;;;;;;17.23;7.30;;;;;;;;;;4979308;28;20093;-91
2022/04/27 09:31:56;;;;;;;19.30;8.18;;;;;;;;;;4982791;28;20558;-82
2022/04/27 09:34:32;;;;;;;20.65;7.65;;;;;;;;;;4984985;28;20420;-83
2022/04/27 09:37:27;;;;;;;17.50;7.25;;;;;;;;;;4984028;28;20035;-83
2022/04/27 09:40:07;;;;;;;17.48;7.68;;;;;;;;;;4999020;28;20046;-83
2022/04/27 09:42:46;;;;;;;15.00;7.45;;;;;;;;;;5003070;28;20030;-83
2022/04/27 09:45:15;;;;;;;14.52;6.53;;;;;;;;;;4984415;28;20031;-82
2022/04/27 09:47:47;;;;;;;16.58;7.85;;;;;;;;;;5003092;28;20030;-82
2022/04/27 09:50:13;;;;;;;17.73;7.70;;;;;;;;;;5003589;28;20053;-83
2022/04/27 09:52:40;;;;;;;17.83;7.72;;;;;;;;;;5001871;28;20050;-81
2022/04/27 09:55:07;;;;;;;16.30;7.07;;;;;;;;;;4985626;28;20053;-83
2022/04/27 09:58:02;;;;;;;15.98;6.97;;;;;;;;;;4984964;28;20042;-83
2022/04/27 10:00:32;;;;;;;20.13;8.13;;;;;;;;;;4983592;28;20034;-93
2022/04/27 10:02:59;;;;;;;16.52;7.45;;;;;;;;;;4983622;28;20046;-83
2022/04/27 10:05:27;;;;;;;17.27;7.15;;;;;;;;;;4999424;28;20094;-80
2022/04/27 10:07:54;;;;;;;14.88;7.20;;;;;;;;;;4979592;28;20037;-85
2022/04/27 10:10:20;;;;;;;16.63;7.57;;;;;;;;;;4980288;28;20173;-86
2022/04/27 10:12:48;;;;;;;16.88;8.23;;;;;;;;;;4980544;28;20037;-88
2022/04/27 10:15:14;;;;;;;20.17;7.88;;;;;;;;;;4980352;28;20026;-83
2022/04/27 10:17:40;;;;;;;18.02;7.95;;;;;;;;;;4979515;28;20065;-87
2022/04/27 10:20:33;;;;;;;17.10;7.78;;;;;;;;;;4980039;28;20026;-90
2022/04/27 10:23:21;;;;;;;17.38;7.70;;;;;;;;;;4976473;28;20038;-84
2022/04/27 10:26:07;;;;;;;17.08;7.97;;;;;;;;;;4996722;28;20026;-89
2022/04/27 10:28:34;;;;;;;19.60;8.70;;;;;;;;;;4978595;28;20509;-81
2022/04/27 10:31:07;;;;;;;21.08;8.52;;;;;;;;;;4968034;28;20019;-84
2022/04/27 10:33:53;;;;;;;17.00;8.30;;;;;;;;;;4959553;28;20122;-83
2022/04/27 10:36:35;;;;;;;16.80;7.85;;;;;;;;;;4960123;28;20041;-83
2022/04/27 10:39:16;;;;;;;17.88;8.60;;;;;;;;;;4960218;28;20038;-82
2022/04/27 10:41:48;;;;;;;17.75;8.40;;;;;;;;;;4966242;28;20041;-82
2022/04/27 10:44:19;;;;;;;18.02;9.00;;;;;;;;;;4977609;28;20039;-92
2022/04/27 10:47:27;;;;;;;25.98;9.13;;;;;;;;;;4959608;28;20062;-84
2022/04/27 10:49:37;;;;;;;18.92;8.65;;;;;;;;;;4986422;28;20046;-83
2022/04/27 10:52:04;;;;;;;21.70;9.57;;;;;;;;;;4996734;28;20105;-95
2022/04/27 10:54:32;;;;;;;20.85;9.30;;;;;;;;;;4979038;28;20687;-82
2022/04/27 10:57:24;;;;;;;15.65;8.15;;;;;;;;;;4997295;28;20147;-86
2022/04/27 10:59:54;;;;;;;17.73;8.73;;;;;;;;;;4965706;28;20022;-94
2022/04/27 11:02:37;;;;;;;22.77;11.23;;;;;;;;;;4973677;28;20030;-82
2022/04/27 11:05:15;;;;;;;21.50;10.82;;;;;;;;;;4971404;28;20041;-86
2022/04/27 11:07:59;;;;;;;20.65;10.15;;;;;;;;;;4978606;28;20038;-83
2022/04/27 11:10:25;;;;;;;25.05;12.98;;;;;;;;;;4978151;28;20173;-90
2022/04/27 11:12:52;;;;;;;23.38;13.10;;;;;;;;;;4978816;28;20030;-84
2022/04/27 11:15:26;;;;;;;25.10;12.43;;;;;;;;;;4979318;28;20042;-92
2022/04/27 11:17:56;;;;;;;26.42;14.43;;;;;;;;;;4978676;28;20125;-89
2022/04/27 11:20:33;;;;;;;25.23;13.70;;;;;;;;;;4981333;28;20045;-83
2022/04/27 11:23:03;;;;;;;30.27;14.02;;;;;;;;;;4978340;28;20042;-82
2022/04/27 11:25:29;;;;;;;26.33;12.68;;;;;;;;;;4996858;28;20775;-88
2022/04/27 11:27:55;;;;;;;25.67;12.45;;;;;;;;;;4978717;28;20117;-88
2022/04/27 11:30:22;;;;;;;26.42;12.98;;;;;;;;;;4975771;28;20050;-86
2022/04/27 11:32:49;;;;;;;30.90;13.82;;;;;;;;;;4974405;28;20023;-84
2022/04/27 11:35:16;;;;;;;24.77;12.88;;;;;;;;;;4975765;28;20527;-84
2022/04/27 11:37:42;;;;;;;28.10;14.15;;;;;;;;;;4975305;28;20045;-85
2022/04/27 11:40:13;;;;;;;33.20;14.45;;;;;;;;;;4975606;28;20368;-83
2022/04/27 11:42:46;;;;;;;25.30;14.05;;;;;;;;;;4959776;28;20028;-83
2022/04/27 11:45:12;;;;;;;;;;;;;;;;;;4936686;29;20031;-83
2022/04/27 11:47:38;;;;;;;26.30;13.30;;;;;;;;;;4952530;29;19963;-85
2022/04/27 11:50:06;;;;;;;27.77;13.57;;;;;;;;;;4937034;29;20051;-85
2022/04/27 11:52:42;;;;;;;24.77;13.07;;;;;;;;;;4914497;29;20402;-84
2022/04/27 11:55:21;;;;;;;25.13;13.27;;;;;;;;;;4901849;29;20091;-84
2022/04/27 11:57:57;;;;;;;28.98;13.63;;;;;;;;;;4905859;29;20548;-94
2022/04/27 12:00:28;;;;;;;27.02;13.02;;;;;;;;;;4937403;29;20059;-95
2022/04/27 12:03:07;;;;;;;23.08;10.55;;;;;;;;;;4935279;29;20088;-95
2022/04/27 12:05:43;;;;;;;22.83;11.00;;;;;;;;;;4937554;29;20023;-84
2022/04/27 12:08:21;;;;;;;18.98;8.80;;;;;;;;;;4937018;29;20035;-92
2022/04/27 12:10:49;;;;;;;18.48;9.55;;;;;;;;;;4934987;29;20036;-82
2022/04/27 12:13:16;;;;;;;20.73;9.30;;;;;;;;;;4935584;29;20114;-84
2022/04/27 12:15:48;;;;;;;16.35;8.63;;;;;;;;;;4935153;29;20028;-93
2022/04/27 12:18:17;;;;;;;17.55;8.30;;;;;;;;;;4935942;29;20104;-83
2022/04/27 12:20:45;;;;;;;16.35;7.80;;;;;;;;;;4936011;29;20024;-84
2022/04/27 12:23:15;;;;;;;12.68;6.97;;;;;;;;;;4935225;29;20624;-86
2022/04/27 12:25:54;;;;;;;19.40;9.07;;;;;;;;;;4935017;29;20539;-87
2022/04/27 12:28:22;;;;;;;15.77;8.25;;;;;;;;;;4935283;29;20055;-82
2022/04/27 12:30:54;;;;;;;16.55;8.07;;;;;;;;;;4988651;28;20022;-82
2022/04/27 12:33:48;;;;;;;20.50;8.80;;;;;;;;;;4984311;28;20022;-93
2022/04/27 12:39:44;;;;;;;20.95;10.52;;;;;;;;;;4982769;28;20053;-86
2022/04/27 12:42:10;;;;;;;21.42;10.82;;;;;;;;;;4975177;28;20041;-88
2022/04/27 12:44:40;;;;;;;20.05;11.35;;;;;;;;;;4962613;28;20024;-89
2022/04/27 12:47:08;;;;;;;19.00;10.85;;;;;;;;;;4974238;28;20034;-88
2022/04/27 12:49:35;;;;;;;21.23;11.27;;;;;;;;;;4975588;28;20023;-88
2022/04/27 12:52:21;;;;;;;19.55;10.82;;;;;;;;;;4974291;28;20062;-87
2022/04/27 12:54:50;;;;;;;22.15;11.60;;;;;;;;;;4974577;28;20086;-90
2022/04/27 12:57:17;;;;;;;23.52;11.90;;;;;;;;;;4974281;28;20122;-85
2022/04/27 12:59:57;;;;;;;23.08;11.75;;;;;;;;;;4973782;28;20038;-84
2022/04/27 13:02:23;;;;;;;21.10;11.50;;;;;;;;;;4974241;28;20026;-85
2022/04/27 13:04:49;;;;;;;21.02;11.25;;;;;;;;;;4973980;28;20097;-85
2022/04/27 13:07:16;;;;;;;20.05;11.40;;;;;;;;;;4974068;28;20030;-85
2022/04/27 13:12:30;;;;;;;18.08;10.00;;;;;;;;;;4970901;28;20147;-84
2022/04/27 13:14:57;;;;;;;18.60;10.40;;;;;;;;;;4973948;28;20023;-88
2022/04/27 13:17:23;;;;;;;18.73;9.55;;;;;;;;;;4966335;28;20515;-82
2022/04/27 13:19:49;;;;;;;19.90;10.45;;;;;;;;;;4957580;28;20030;-81
2022/04/27 13:22:15;;;;;;;17.92;9.70;;;;;;;;;;4961861;28;20031;-83
2022/04/27 13:24:41;;;;;;;16.92;9.05;;;;;;;;;;4963294;28;20030;-84
2022/04/27 13:27:07;;;;;;;16.42;8.77;;;;;;;;;;4973002;28;20031;-83
2022/04/27 13:29:33;;;;;;;21.05;10.02;;;;;;;;;;4972908;28;20082;-83
2022/04/27 13:32:00;;;;;;;19.00;9.15;;;;;;;;;;4973115;28;20073;-89
2022/04/27 13:34:27;;;;;;;16.98;9.55;;;;;;;;;;4974362;28;20416;-85
2022/04/27 13:36:53;;;;;;;18.27;9.45;;;;;;;;;;4967344;28;20070;-84
2022/04/27 13:39:19;;;;;;;21.27;9.85;;;;;;;;;;4965405;28;20032;-84
2022/04/27 13:41:45;;;;;;;15.88;9.35;;;;;;;;;;4957438;29;20038;-81
2022/04/27 13:44:11;;;;;;;18.05;9.68;;;;;;;;;;4957476;29;20027;-82
2022/04/27 13:46:38;;;;;;;17.63;9.43;;;;;;;;;;4958667;28;20220;-83
2022/04/27 13:49:04;;;;;;;16.98;9.82;;;;;;;;;;4977131;28;20042;-85
2022/04/27 13:51:32;;;;;;;20.65;10.02;;;;;;;;;;4976459;28;20033;-83
2022/04/27 13:53:59;;;;;;;17.17;10.18;;;;;;;;;;4971571;28;20030;-84
2022/04/27 13:56:29;;;;;;;22.35;11.35;;;;;;;;;;4957235;29;20101;-83
2022/04/27 13:58:55;;;;;;;18.08;10.45;;;;;;;;;;4958452;28;20500;-82
2022/04/27 14:01:21;;;;;;;19.35;10.48;;;;;;;;;;4957101;29;20083;-83
2022/04/27 14:03:47;;;;;;;20.70;10.10;;;;;;;;;;4957195;29;20162;-83
2022/04/27 14:06:23;;;;;;;22.52;11.27;;;;;;;;;;4956841;29;20122;-83
2022/04/27 14:08:51;;;;;;;18.38;10.57;;;;;;;;;;4956944;29;20110;-84
2022/04/27 14:14:02;;;;;;;18.13;10.68;;;;;;;;;;4977051;28;20053;-85
2022/04/27 14:19:15;;;;;;;20.38;11.32;;;;;;;;;;4972552;28;20046;-84
2022/04/27 14:21:41;;;;;;;21.45;11.50;;;;;;;;;;4976558;28;20031;-84
2022/04/27 14:24:09;;;;;;;21.60;11.20;;;;;;;;;;4976918;28;20053;-84
2022/04/27 14:26:36;;;;;;;22.20;11.45;;;;;;;;;;4958292;28;20461;-83
2022/04/27 14:29:02;;;;;;;21.98;10.98;;;;;;;;;;4972953;28;20048;-83
2022/04/27 14:31:28;;;;;;;20.27;10.93;;;;;;;;;;4957628;29;20046;-82
2022/04/27 14:33:55;;;;;;;17.77;10.07;;;;;;;;;;4957745;28;20039;-84
2022/04/27 14:36:21;;;;;;;20.05;10.93;;;;;;;;;;4972898;28;20033;-83
2022/04/27 14:38:47;;;;;;;20.35;10.43;;;;;;;;;;4972942;28;20031;-84
2022/04/27 14:41:16;;;;;;;20.35;10.18;;;;;;;;;;4972883;28;20027;-83
2022/04/27 14:43:42;;;;;;;21.48;11.40;;;;;;;;;;4973230;28;20058;-84
2022/04/27 14:46:09;;;;;;;17.92;11.02;;;;;;;;;;4958103;29;20031;-83
2022/04/27 14:48:35;;;;;;;23.45;11.88;;;;;;;;;;4957657;28;20035;-84
2022/04/27 14:51:01;;;;;;;23.80;11.98;;;;;;;;;;4972405;28;20476;-88
2022/04/27 14:53:27;;;;;;;23.00;11.98;;;;;;;;;;4972608;28;20503;-83
2022/04/27 14:55:55;;;;;;;23.98;12.13;;;;;;;;;;4972253;28;20019;-84